Terminal Aerodrome Forecast
Issued by NWS Paducah, KY

Home | Current Version | Previous Version | Text Only | Print | Product List | Glossary On
Versions: 1 2 3 4 5 6 7 8 9 10 11 12 13 14 15 16 17 18 19 20 21 22
000
FTUS43 KPAH 061729 AAC
TAFPAH
TAF AMD
KPAH 061729Z 0617/0718 32012G19KT P6SM OVC015
     FM062300 34008KT P6SM BKN020
     FM070200 36004KT P6SM BKN150
     FM071400 02006KT P6SM SCT080=

USA.gov is the U.S. government's official web portal to all federal, state and local government web resources and services.